Time;durP1;ratioP1;P1;durP2;ratioP2;P2;SDS_P1;SDS_P2;PMS_P1;PMS_P2;Temp;Humidity;BMP_temperature;BMP_pressure;BME280_temperature;BME280_humidity;BME280_pressure;Samples;Min_cycle;Max_cycle;Signal;HPM_P1;HPM_P2
2024/01/30 00:00:54;;;;;;;11.82;8.25;;;;;;;2.30;76.29;99672.09;5087866;28;20483;-70
2024/01/30 00:03:19;;;;;;;10.70;8.07;;;;;;;2.32;76.71;99670.09;5087373;28;20021;-70
2024/01/30 00:05:44;;;;;;;14.18;9.00;;;;;;;2.15;76.38;99641.75;5080053;28;20083;-70
2024/01/30 00:08:10;;;;;;;10.25;8.25;;;;;;;2.31;76.16;99662.31;5078056;28;20053;-71
2024/01/30 00:10:36;;;;;;;9.70;8.52;;;;;;;2.29;76.34;99662.44;5072039;28;20596;-71
2024/01/30 00:13:02;;;;;;;9.07;8.18;;;;;;;2.30;76.37;99666.78;5079881;28;20020;-71
2024/01/30 00:15:27;;;;;;;9.98;8.30;;;;;;;2.30;76.05;99671.25;5082874;28;20032;-71
2024/01/30 00:17:53;;;;;;;13.90;10.07;;;;;;;2.26;76.08;99673.41;5080315;28;20391;-71
2024/01/30 00:20:18;;;;;;;15.57;10.15;;;;;;;2.20;75.55;99676.66;5080642;28;20040;-71
2024/01/30 00:22:44;;;;;;;14.82;10.95;;;;;;;2.19;75.80;99677.66;5085012;28;20468;-71
2024/01/30 00:25:09;;;;;;;13.15;9.82;;;;;;;2.17;76.15;99670.84;5076847;28;20034;-71
2024/01/30 00:27:34;;;;;;;13.95;9.75;;;;;;;2.15;76.34;99670.97;5077795;28;20434;-71
2024/01/30 00:30:00;;;;;;;12.75;10.18;;;;;;;2.10;76.43;99665.31;5081008;28;20074;-71
2024/01/30 00:32:25;;;;;;;12.65;10.05;;;;;;;2.10;76.62;99665.31;5079658;28;20477;-71
2024/01/30 00:34:51;;;;;;;11.80;8.55;;;;;;;1.96;75.77;99641.97;5081966;28;20043;-71
2024/01/30 00:37:16;;;;;;;10.80;8.68;;;;;;;2.11;76.14;99656.34;5089756;28;20024;-69
2024/01/30 00:39:41;;;;;;;10.13;8.40;;;;;;;2.13;76.41;99659.66;5082592;28;20403;-69
2024/01/30 00:42:07;;;;;;;11.48;8.75;;;;;;;2.15;75.87;99656.88;5073322;28;20044;-70
2024/01/30 00:44:37;;;;;;;11.43;8.75;;;;;;;2.15;75.76;99647.06;5076555;28;20530;-70
2024/01/30 00:47:03;;;;;;;11.82;8.95;;;;;;;2.01;76.04;99634.31;5083601;28;20032;-70
2024/01/30 00:49:28;;;;;;;10.43;8.77;;;;;;;2.02;76.44;99642.16;5078654;28;20090;-70
2024/01/30 00:51:53;;;;;;;9.23;8.27;;;;;;;2.00;75.80;99648.63;5074185;28;20032;-70
2024/01/30 00:54:19;;;;;;;13.13;8.50;;;;;;;1.95;76.60;99646.44;5087779;28;20025;-70
2024/01/30 00:56:44;;;;;;;9.95;8.85;;;;;;;1.94;76.70;99643.91;5083019;28;20036;-70
2024/01/30 00:59:11;;;;;;;12.07;8.98;;;;;;;1.91;76.58;99654.84;5081589;28;20468;-70
2024/01/30 01:01:36;;;;;;;10.00;8.85;;;;;;;1.87;76.51;99653.47;5077374;28;20040;-70
2024/01/30 01:04:02;;;;;;;11.95;9.27;;;;;;;1.81;76.20;99643.47;5083949;28;20066;-70
2024/01/30 01:06:27;;;;;;;10.77;8.45;;;;;;;1.78;76.73;99651.75;5071180;28;20044;-70
2024/01/30 01:08:52;;;;;;;10.98;8.73;;;;;;;1.74;76.98;99653.03;5072806;28;20025;-70
2024/01/30 01:11:18;;;;;;;11.80;9.15;;;;;;;1.70;76.80;99643.72;5081440;28;20079;-70
2024/01/30 01:13:43;;;;;;;14.13;9.32;;;;;;;1.67;76.36;99636.06;5082141;28;20099;-71
2024/01/30 01:16:08;;;;;;;10.05;8.55;;;;;;;1.67;77.56;99630.75;5082957;28;20044;-70
2024/01/30 01:18:34;;;;;;;9.82;8.75;;;;;;;1.66;77.46;99637.03;5085130;28;20028;-70
2024/01/30 01:21:00;;;;;;;14.43;11.13;;;;;;;1.61;77.02;99615.44;5077939;28;20527;-71
2024/01/30 01:23:25;;;;;;;13.00;9.32;;;;;;;1.68;76.67;99624.47;5093223;28;20103;-70
2024/01/30 01:25:50;;;;;;;10.60;9.10;;;;;;;1.57;77.19;99629.97;5084000;28;20036;-69
2024/01/30 01:28:16;;;;;;;9.98;8.80;;;;;;;1.54;77.28;99619.69;5076737;28;20024;-70
2024/01/30 01:30:41;;;;;;;11.65;9.10;;;;;;;1.47;76.63;99618.63;5073875;28;20476;-70
2024/01/30 01:33:07;;;;;;;10.38;9.02;;;;;;;1.47;76.80;99618.63;5077573;28;20028;-70
2024/01/30 01:35:32;;;;;;;9.95;8.80;;;;;;;1.42;76.68;99616.44;5085896;28;20051;-70
2024/01/30 01:37:59;;;;;;;10.15;8.23;;;;;;;1.36;76.95;99617.84;5088495;28;20020;-70
2024/01/30 01:40:26;;;;;;;12.07;9.88;;;;;;;1.35;77.93;99616.16;5079579;28;20464;-69
2024/01/30 01:42:52;;;;;;;12.05;10.80;;;;;;;1.33;78.14;99628.75;5088295;28;20576;-69
2024/01/30 01:45:18;;;;;;;14.05;10.00;;;;;;;1.29;77.79;99622.09;5085302;28;20044;-69
2024/01/30 01:47:45;;;;;;;10.60;9.48;;;;;;;1.31;78.06;99625.44;5089688;28;20048;-69
2024/01/30 01:50:12;;;;;;;12.55;10.90;;;;;;;1.26;77.31;99621.56;5085432;28;20491;-70
2024/01/30 01:52:39;;;;;;;12.38;10.27;;;;;;;1.25;77.40;99626.03;5086250;28;20031;-69
2024/01/30 01:55:05;;;;;;;13.80;11.05;;;;;;;1.18;77.94;99624.97;5082864;28;20036;-69
2024/01/30 01:57:30;;;;;;;14.65;11.27;;;;;;;1.12;77.62;99617.59;5088935;28;20106;-70
2024/01/30 01:59:55;;;;;;;12.98;10.50;;;;;;;1.14;77.71;99617.47;5086776;28;20507;-70
2024/01/30 02:02:23;;;;;;;11.80;9.48;;;;;;;1.16;78.44;99620.81;5082314;28;20031;-70
2024/01/30 02:04:48;;;;;;;12.15;10.50;;;;;;;1.15;77.70;99619.97;5082003;28;20498;-70
2024/01/30 02:07:14;;;;;;;12.90;11.15;;;;;;;1.12;78.54;99622.91;5082139;28;20020;-70
2024/01/30 02:09:39;;;;;;;13.23;10.75;;;;;;;1.09;77.49;99609.97;5084716;28;20039;-70
2024/01/30 02:12:05;;;;;;;11.10;9.98;;;;;;;1.09;77.94;99612.63;5084633;28;20502;-70
2024/01/30 02:14:30;;;;;;;11.70;9.80;;;;;;;1.07;77.57;99611.94;5082688;28;20035;-70
2024/01/30 02:16:56;;;;;;;12.73;10.10;;;;;;;1.01;77.77;99615.16;5080548;28;20028;-70
2024/01/30 02:19:21;;;;;;;12.32;10.48;;;;;;;0.92;78.12;99624.00;5082414;28;20036;-69
2024/01/30 02:21:46;;;;;;;11.90;10.57;;;;;;;0.77;78.52;99598.97;5083049;28;20034;-70
2024/01/30 02:24:12;;;;;;;11.25;10.05;;;;;;;0.88;78.59;99617.34;5074130;28;20067;-70
2024/01/30 02:26:37;;;;;;;11.95;10.68;;;;;;;0.86;77.77;99618.47;5081065;28;20106;-70
2024/01/30 02:29:02;;;;;;;12.00;10.18;;;;;;;0.71;78.29;99594.25;5085483;28;20024;-70
2024/01/30 02:31:28;;;;;;;12.80;10.63;;;;;;;0.86;78.64;99611.34;5085058;28;20456;-70
2024/01/30 02:33:53;;;;;;;14.65;11.20;;;;;;;0.87;78.89;99605.06;5081688;28;20048;-71
2024/01/30 02:36:18;;;;;;;11.20;10.10;;;;;;;0.89;78.22;99608.38;5082644;28;20039;-71
2024/01/30 02:38:46;;;;;;;11.93;9.88;;;;;;;0.73;78.72;99576.38;5083977;28;20040;-71
2024/01/30 02:41:11;;;;;;;13.15;11.15;;;;;;;0.84;78.34;99605.34;5077433;28;20031;-71
2024/01/30 02:43:37;;;;;;;11.32;10.18;;;;;;;0.84;78.65;99594.75;5074026;28;20029;-70
2024/01/30 02:46:02;;;;;;;11.13;10.00;;;;;;;0.87;78.74;99598.91;5075480;28;20382;-70
2024/01/30 02:48:27;;;;;;;12.45;10.75;;;;;;;0.83;78.65;99606.34;5074220;28;20033;-71
2024/01/30 02:50:53;;;;;;;11.35;9.95;;;;;;;0.75;79.49;99610.72;5078299;28;20020;-70
2024/01/30 02:53:18;;;;;;;13.15;10.40;;;;;;;0.54;79.29;99587.09;5080600;28;20119;-70
2024/01/30 02:55:44;;;;;;;13.98;10.95;;;;;;;0.61;79.56;99612.03;5075955;28;20040;-69
2024/01/30 02:58:09;;;;;;;17.90;10.50;;;;;;;0.60;79.73;99618.31;5073732;28;20123;-69
2024/01/30 03:00:34;;;;;;;11.13;9.95;;;;;;;0.56;79.80;99614.31;5082842;28;20032;-69
2024/01/30 03:03:00;;;;;;;11.43;10.23;;;;;;;0.50;79.05;99613.06;5074644;28;20032;-69
2024/01/30 03:05:25;;;;;;;14.70;11.25;;;;;;;0.54;79.76;99608.28;5078721;28;20082;-70
2024/01/30 03:07:51;;;;;;;12.45;9.75;;;;;;;0.55;79.04;99609.97;5078506;28;20032;-69
2024/01/30 03:10:16;;;;;;;12.23;10.93;;;;;;;0.54;79.28;99608.28;5084249;28;20029;-69
2024/01/30 03:12:41;;;;;;;11.13;9.80;;;;;;;0.54;79.67;99616.25;5082261;28;20040;-69
2024/01/30 03:15:07;;;;;;;14.27;10.80;;;;;;;0.57;79.25;99613.31;5080549;28;20020;-69
2024/01/30 03:17:32;;;;;;;13.30;10.50;;;;;;;0.51;78.85;99604.13;5077196;28;20032;-69
2024/01/30 03:19:58;;;;;;;11.82;10.10;;;;;;;0.53;79.63;99607.47;5073948;28;20032;-69
2024/01/30 03:22:23;;;;;;;12.07;10.80;;;;;;;0.52;79.25;99610.25;5084948;28;20479;-69
2024/01/30 03:24:49;;;;;;;12.93;10.43;;;;;;;0.43;78.86;99590.78;5083794;28;20105;-70
2024/01/30 03:27:14;;;;;;;11.90;10.30;;;;;;;0.47;79.80;99608.03;5076181;28;20036;-70
2024/01/30 03:29:39;;;;;;;12.82;10.55;;;;;;;0.47;79.02;99612.50;5076468;28;20020;-70
2024/01/30 03:32:05;;;;;;;13.32;11.27;;;;;;;0.50;78.98;99613.06;5081771;28;20043;-70
2024/01/30 03:34:30;;;;;;;13.80;11.45;;;;;;;0.50;80.00;99612.22;5080116;28;20383;-69
2024/01/30 03:36:56;;;;;;;13.20;11.35;;;;;;;0.52;79.15;99612.91;5076806;28;20040;-70
2024/01/30 03:39:21;;;;;;;14.90;10.77;;;;;;;0.48;79.74;99614.19;5087110;28;20028;-69
2024/01/30 03:41:46;;;;;;;14.63;10.95;;;;;;;0.50;79.53;99617.53;5078920;28;20036;-69
2024/01/30 03:44:12;;;;;;;12.07;10.52;;;;;;;0.48;79.50;99614.19;5081284;28;20078;-69
2024/01/30 03:46:37;;;;;;;12.55;11.25;;;;;;;0.49;79.09;99621.16;5075905;28;20035;-69
2024/01/30 03:49:03;;;;;;;14.27;11.65;;;;;;;0.48;79.31;99620.31;5061390;28;20027;-70
2024/01/30 03:51:28;;;;;;;12.27;10.55;;;;;;;0.42;80.11;99620.09;5076141;28;20036;-70
2024/01/30 03:53:53;;;;;;;13.57;12.05;;;;;;;0.39;79.99;99615.06;5075192;28;20025;-70
2024/01/30 03:56:19;;;;;;;13.82;12.20;;;;;;;0.36;80.08;99624.13;5081765;28;20059;-68
2024/01/30 03:58:44;;;;;;;12.73;11.40;;;;;;;0.33;79.87;99620.94;5077325;28;20031;-68
2024/01/30 04:01:14;;;;;;;13.02;11.07;;;;;;;0.34;79.03;99612.00;5074930;28;20044;-68
2024/01/30 04:03:39;;;;;;;13.20;11.75;;;;;;;0.34;79.55;99617.31;5075590;28;20370;-68
2024/01/30 04:06:04;;;;;;;14.70;10.77;;;;;;;0.34;79.35;99617.31;5075955;28;20048;-68
2024/01/30 04:08:30;;;;;;;13.45;11.27;;;;;;;0.35;79.45;99608.41;5082470;28;20025;-68
2024/01/30 04:10:55;;;;;;;15.52;11.98;;;;;;;0.27;79.64;99606.47;5078945;28;20085;-68
2024/01/30 04:13:21;;;;;;;13.57;11.88;;;;;;;0.31;79.79;99607.00;5073032;28;20126;-69
2024/01/30 04:15:46;;;;;;;15.40;11.40;;;;;;;0.25;78.89;99604.94;5084285;28;20093;-68
2024/01/30 04:18:11;;;;;;;13.13;11.45;;;;;;;0.25;79.59;99607.59;5084232;28;20024;-69
2024/01/30 04:20:37;;;;;;;13.95;12.18;;;;;;;0.28;79.89;99609.94;5082464;28;20036;-69
2024/01/30 04:23:02;;;;;;;14.30;11.88;;;;;;;0.27;79.04;99613.56;5080043;28;20047;-68
2024/01/30 04:25:27;;;;;;;14.27;11.38;;;;;;;0.24;79.78;99608.53;5062899;28;20051;-68
2024/01/30 04:27:53;;;;;;;14.63;12.30;;;;;;;0.24;79.91;99600.59;5077896;28;20464;-68
2024/01/30 04:30:18;;;;;;;16.25;13.43;;;;;;;0.22;79.17;99603.41;5079224;28;20040;-68
2024/01/30 04:32:44;;;;;;;15.32;12.02;;;;;;;0.21;79.44;99603.56;5078273;28;20114;-68
2024/01/30 04:35:09;;;;;;;13.27;11.77;;;;;;;0.21;79.62;99600.91;5087543;28;20489;-69
2024/01/30 04:37:34;;;;;;;14.23;12.68;;;;;;;0.20;79.09;99604.53;5073512;28;20032;-70
2024/01/30 04:40:00;;;;;;;17.10;14.30;;;;;;;0.19;79.49;99606.34;5073938;28;20484;-71
2024/01/30 04:42:25;;;;;;;26.67;18.95;;;;;;;0.18;79.66;99622.38;5081363;28;20023;-68
2024/01/30 04:44:51;;;;;;;17.88;14.48;;;;;;;-0.11;80.48;99575.63;5072318;28;20040;-68
2024/01/30 04:47:16;;;;;;;15.68;13.35;;;;;;;0.12;80.82;99612.38;5077590;28;20039;-68
2024/01/30 04:49:42;;;;;;;14.25;12.52;;;;;;;0.18;79.98;99617.94;5079409;28;20036;-68
2024/01/30 04:52:08;;;;;;;14.85;13.35;;;;;;;0.21;80.32;99620.25;5080573;28;20039;-69
2024/01/30 04:54:34;;;;;;;17.15;13.75;;;;;;;0.10;79.77;99601.06;5085068;28;20056;-68
2024/01/30 04:57:00;;;;;;;16.60;13.57;;;;;;;0.21;80.23;99617.63;5079652;28;20435;-69
2024/01/30 04:59:26;;;;;;;14.88;13.27;;;;;;;0.22;80.60;99621.09;5079654;28;20119;-69
2024/01/30 05:01:51;;;;;;;17.27;14.93;;;;;;;0.15;80.21;99612.06;5082021;28;20138;-68
2024/01/30 05:04:16;;;;;;;19.88;17.00;;;;;;;0.19;79.77;99616.13;5075213;28;20052;-69
2024/01/30 05:06:42;;;;;;;18.35;16.35;;;;;;;0.20;79.54;99625.72;5081623;28;20024;-68
2024/01/30 05:09:09;;;;;;;17.50;15.48;;;;;;;0.23;80.20;99628.09;5077585;28;20048;-69
2024/01/30 05:11:38;;;;;;;16.23;14.52;;;;;;;0.23;80.26;99625.44;5084826;28;20106;-69
2024/01/30 05:14:04;;;;;;;18.98;16.98;;;;;;;0.26;79.64;99630.44;5075141;28;20190;-69
2024/01/30 05:16:30;;;;;;;21.40;18.60;;;;;;;0.22;79.89;99624.59;5088519;28;20107;-68
2024/01/30 05:18:55;;;;;;;20.63;18.02;;;;;;;0.28;79.72;99628.50;5079314;28;20040;-69
2024/01/30 05:21:20;;;;;;;20.25;16.58;;;;;;;0.30;80.20;99631.81;5078013;28;20046;-68
2024/01/30 05:23:46;;;;;;;21.02;17.45;;;;;;;0.34;79.75;99622.59;5081502;28;20047;-70
2024/01/30 05:26:11;;;;;;;24.08;19.52;;;;;;;0.35;79.83;99622.44;5088600;28;20051;-69
2024/01/30 05:28:37;;;;;;;21.55;18.88;;;;;;;0.39;79.40;99626.50;5084201;28;20045;-69
2024/01/30 05:31:03;;;;;;;19.13;17.05;;;;;;;0.41;79.62;99619.25;5081714;28;20016;-69
2024/01/30 05:33:28;;;;;;;19.20;17.17;;;;;;;0.40;79.46;99614.91;5086299;28;20036;-69
2024/01/30 05:35:54;;;;;;;20.70;16.85;;;;;;;0.43;80.32;99622.56;5087523;28;20495;-69
2024/01/30 05:38:19;;;;;;;19.73;17.35;;;;;;;0.46;80.20;99617.00;5086782;28;20073;-68
2024/01/30 05:40:45;;;;;;;21.17;18.98;;;;;;;0.48;79.65;99620.31;5079178;28;20021;-68
2024/01/30 05:43:10;;;;;;;21.58;19.02;;;;;;;0.45;79.41;99619.75;5091016;28;20055;-69
2024/01/30 05:45:36;;;;;;;21.45;18.67;;;;;;;0.50;79.84;99622.81;5073714;28;20523;-68
2024/01/30 05:48:01;;;;;;;21.25;18.65;;;;;;;0.53;79.67;99625.19;5089438;28;20036;-68
2024/01/30 05:50:26;;;;;;;24.25;18.65;;;;;;;0.52;80.01;99615.56;5074727;28;20054;-69
2024/01/30 05:52:52;;;;;;;25.10;19.10;;;;;;;0.57;80.17;99621.25;5082601;28;20045;-69
2024/01/30 05:55:17;;;;;;;19.45;17.40;;;;;;;0.56;79.37;99616.97;5076736;28;20093;-69
2024/01/30 05:57:43;;;;;;;24.83;18.98;;;;;;;0.57;79.77;99618.59;5080270;28;20459;-69
2024/01/30 06:00:08;;;;;;;29.33;20.92;;;;;;;0.63;79.66;99618.03;5083923;28;20043;-69
2024/01/30 06:02:34;;;;;;;23.60;17.42;;;;;;;0.67;79.07;99622.06;5091857;28;20040;-69
2024/01/30 06:04:59;;;;;;;28.70;20.70;;;;;;;0.71;79.03;99620.78;5094608;28;20040;-69
2024/01/30 06:07:24;;;;;;;24.67;19.40;;;;;;;0.71;79.96;99615.47;5074182;28;20040;-69
2024/01/30 06:09:50;;;;;;;18.63;14.90;;;;;;;0.56;79.17;99609.81;5076949;28;20029;-69
2024/01/30 06:12:15;;;;;;;16.80;15.10;;;;;;;0.67;78.97;99619.41;5067856;28;20487;-68
2024/01/30 06:14:42;;;;;;;16.85;15.05;;;;;;;0.71;79.92;99620.78;5081049;28;20017;-69
2024/01/30 06:17:08;;;;;;;19.58;16.73;;;;;;;0.77;78.86;99614.88;5078879;28;20500;-69
2024/01/30 06:19:33;;;;;;;19.55;16.67;;;;;;;0.83;78.68;99624.91;5084233;28;20020;-69
2024/01/30 06:21:59;;;;;;;16.95;15.10;;;;;;;0.80;79.18;99627.84;5082349;28;20412;-69
2024/01/30 06:24:24;;;;;;;17.00;14.25;;;;;;;0.86;78.80;99629.91;5072810;28;20083;-69
2024/01/30 06:26:50;;;;;;;15.18;12.02;;;;;;;0.87;79.46;99626.28;5081884;28;20040;-69
2024/01/30 06:29:16;;;;;;;14.82;13.43;;;;;;;0.87;79.62;99614.81;5079473;28;20035;-69
2024/01/30 06:31:42;;;;;;;15.02;13.13;;;;;;;0.97;78.96;99632.38;5085098;28;20395;-69
2024/01/30 06:34:08;;;;;;;14.65;13.15;;;;;;;1.00;79.96;99626.78;5061787;28;20115;-69
2024/01/30 06:36:34;;;;;;;15.68;13.23;;;;;;;0.97;79.08;99616.44;5087065;28;20120;-69
2024/01/30 06:38:59;;;;;;;16.83;13.75;;;;;;;1.08;78.95;99629.50;5083268;28;20111;-69
2024/01/30 06:41:24;;;;;;;13.80;12.15;;;;;;;1.06;79.90;99626.16;5079126;28;20106;-69
2024/01/30 06:43:50;;;;;;;13.07;11.60;;;;;;;1.08;79.51;99628.66;5083744;28;20021;-69
2024/01/30 06:46:15;;;;;;;13.25;11.10;;;;;;;1.08;79.86;99632.16;5079043;28;20115;-69
2024/01/30 06:48:40;;;;;;;12.35;11.15;;;;;;;1.11;79.91;99634.50;5086352;28;20024;-69
2024/01/30 06:51:06;;;;;;;12.02;10.85;;;;;;;1.13;79.46;99632.53;5079043;28;20040;-69
2024/01/30 06:53:31;;;;;;;12.88;11.05;;;;;;;1.19;79.15;99636.44;5080188;28;20020;-68
2024/01/30 06:55:57;;;;;;;12.32;11.02;;;;;;;1.21;79.78;99640.56;5075321;28;20037;-69
2024/01/30 06:58:22;;;;;;;12.88;10.60;;;;;;;1.11;79.41;99623.91;5073105;28;20527;-69
2024/01/30 07:00:48;;;;;;;11.63;10.30;;;;;;;1.25;79.05;99649.09;5081680;28;20032;-69
2024/01/30 07:03:13;;;;;;;12.20;10.05;;;;;;;1.25;79.50;99636.66;5081350;28;20587;-69
2024/01/30 07:05:38;;;;;;;11.32;10.13;;;;;;;1.21;79.63;99624.66;5085470;28;20039;-69
2024/01/30 07:08:04;;;;;;;11.82;10.52;;;;;;;1.38;80.01;99637.09;5090188;28;20361;-70
2024/01/30 07:10:31;;;;;;;12.48;10.23;;;;;;;1.39;78.76;99638.78;5083084;28;20035;-67
2024/01/30 07:12:56;;;;;;;12.10;10.52;;;;;;;1.36;79.26;99639.09;5075529;28;20085;-68
2024/01/30 07:15:22;;;;;;;15.30;10.98;;;;;;;1.45;78.85;99647.13;5072788;28;20036;-69
2024/01/30 07:17:47;;;;;;;20.77;16.00;;;;;;;1.48;79.87;99646.81;5075080;28;20029;-69
2024/01/30 07:20:13;;;;;;;16.80;14.15;;;;;;;1.53;78.72;99645.38;5075877;28;20106;-68
2024/01/30 07:22:38;;;;;;;16.60;13.50;;;;;;;1.45;79.28;99626.72;5072262;28;20434;-68
2024/01/30 07:25:04;;;;;;;15.75;13.55;;;;;;;1.60;79.28;99645.59;5076944;28;20028;-68
2024/01/30 07:27:29;;;;;;;19.70;14.30;;;;;;;1.55;79.31;99642.56;5084923;28;20024;-68
2024/01/30 07:29:54;;;;;;;13.13;11.52;;;;;;;1.64;79.64;99647.81;5090381;28;20032;-68
2024/01/30 07:32:20;;;;;;;12.35;9.73;;;;;;;1.70;79.42;99649.88;5089631;28;20104;-68
2024/01/30 07:34:45;;;;;;;12.80;11.07;;;;;;;1.62;78.97;99631.19;5075657;28;20039;-68
2024/01/30 07:37:15;;;;;;;13.50;11.15;;;;;;;1.81;78.30;99646.97;5082089;28;20060;-68
2024/01/30 07:39:40;;;;;;;12.63;11.35;;;;;;;1.87;79.19;99653.47;5081378;28;20036;-68
2024/01/30 07:42:06;;;;;;;11.77;10.55;;;;;;;1.89;78.96;99651.53;5072748;28;20451;-68
2024/01/30 07:44:31;;;;;;;12.38;11.10;;;;;;;1.86;79.02;99657.13;5077124;28;20035;-68
2024/01/30 07:46:57;;;;;;;12.20;10.98;;;;;;;1.76;79.18;99661.69;5088683;28;20024;-68
2024/01/30 07:49:22;;;;;;;12.88;11.05;;;;;;;1.65;79.27;99638.88;5053055;28;20442;-68
2024/01/30 07:51:48;;;;;;;13.25;11.25;;;;;;;1.82;79.31;99666.41;5073653;28;20028;-68
2024/01/30 07:54:13;;;;;;;12.80;11.13;;;;;;;1.90;78.86;99663.81;5085950;28;20476;-69
2024/01/30 07:56:38;;;;;;;12.52;11.18;;;;;;;1.97;78.74;99659.53;5081004;28;20064;-69
2024/01/30 07:59:04;;;;;;;16.38;12.05;;;;;;;2.03;78.71;99667.72;5080429;28;20063;-69
2024/01/30 08:01:29;;;;;;;12.98;11.70;;;;;;;1.92;79.58;99645.88;5084201;28;20016;-69
2024/01/30 08:03:55;;;;;;;16.35;14.65;;;;;;;2.08;79.39;99668.09;5077569;28;20028;-69
2024/01/30 08:06:20;;;;;;;12.68;11.15;;;;;;;2.16;79.04;99666.50;5086969;28;20032;-69
2024/01/30 08:08:45;;;;;;;12.90;11.60;;;;;;;2.14;78.72;99665.81;5078844;28;20046;-69
2024/01/30 08:11:12;;;;;;;14.32;11.25;;;;;;;2.15;78.81;99662.19;5083793;28;20499;-69
2024/01/30 08:13:37;;;;;;;15.20;12.00;;;;;;;2.24;77.97;99670.03;5087050;28;20036;-69
2024/01/30 08:16:04;;;;;;;14.43;12.18;;;;;;;2.30;78.36;99676.56;5082113;28;20036;-69
2024/01/30 08:18:29;;;;;;;14.13;12.52;;;;;;;2.30;77.97;99677.41;5075924;28;20078;-69
2024/01/30 08:20:54;;;;;;;13.75;11.38;;;;;;;2.37;77.99;99678.44;5080053;28;20055;-69
2024/01/30 08:23:20;;;;;;;13.82;10.65;;;;;;;2.39;77.69;99676.47;5081896;28;20070;-69
2024/01/30 08:25:45;;;;;;;14.38;11.23;;;;;;;2.46;77.33;99680.16;5083234;28;20502;-69
2024/01/30 08:28:10;;;;;;;15.73;12.38;;;;;;;2.37;77.00;99657.19;5083335;28;20115;-69
2024/01/30 08:30:36;;;;;;;13.85;11.88;;;;;;;2.57;76.84;99676.41;5075229;28;20024;-71
2024/01/30 08:33:01;;;;;;;13.23;11.85;;;;;;;2.69;76.98;99675.13;5077788;28;20028;-71
2024/01/30 08:35:28;;;;;;;15.43;12.02;;;;;;;2.80;76.04;99681.03;5091070;28;20058;-70
2024/01/30 08:37:54;;;;;;;13.73;11.63;;;;;;;2.89;76.48;99683.72;5085125;28;20123;-71
2024/01/30 08:40:19;;;;;;;12.65;11.27;;;;;;;2.93;76.32;99682.41;5072219;28;20067;-71
2024/01/30 08:42:44;;;;;;;14.98;13.30;;;;;;;2.93;76.34;99663.78;5079312;28;20045;-71
2024/01/30 08:45:10;;;;;;;15.77;13.10;;;;;;;2.94;76.52;99665.47;5083111;28;20020;-71
2024/01/30 08:47:36;;;;;;;15.23;13.15;;;;;;;3.03;76.44;99675.16;5055040;28;20093;-70
2024/01/30 08:50:02;;;;;;;14.57;13.02;;;;;;;3.04;76.36;99674.13;5086461;28;20028;-71
2024/01/30 08:52:27;;;;;;;15.98;12.77;;;;;;;3.09;75.53;99674.50;5080988;28;20028;-71
2024/01/30 08:54:54;;;;;;;17.73;13.20;;;;;;;3.17;75.45;99669.22;5087611;28;20031;-71
2024/01/30 08:57:20;;;;;;;15.60;13.25;;;;;;;3.17;75.52;99671.88;5068806;28;20055;-71
2024/01/30 08:59:46;;;;;;;15.60;12.20;;;;;;;3.17;75.41;99666.56;5064982;28;20039;-71
2024/01/30 09:02:17;;;;;;;15.52;12.73;;;;;;;3.25;75.38;99671.88;5083968;28;20032;-73
2024/01/30 09:04:43;;;;;;;15.10;12.38;;;;;;;3.35;75.32;99669.94;5071449;28;20032;-73
2024/01/30 09:07:10;;;;;;;15.60;13.13;;;;;;;3.33;75.03;99666.59;5074699;28;20536;-75
2024/01/30 09:09:39;;;;;;;14.77;11.93;;;;;;;3.45;75.37;99673.28;5065043;28;20514;-73
2024/01/30 09:12:07;;;;;;;16.05;13.15;;;;;;;3.37;75.41;99651.97;5072967;28;20055;-71
2024/01/30 09:14:32;;;;;;;14.43;12.23;;;;;;;3.60;75.25;99678.78;5079618;28;20306;-73
2024/01/30 09:17:03;;;;;;;15.48;13.13;;;;;;;3.67;75.37;99680.66;5066202;28;20222;-76
2024/01/30 09:19:28;;;;;;;13.93;12.35;;;;;;;3.59;75.53;99662.00;5074436;28;20039;-71
2024/01/30 09:21:54;;;;;;;13.20;11.73;;;;;;;3.74;75.74;99676.31;5079872;28;20397;-72
2024/01/30 09:24:19;;;;;;;13.48;12.10;;;;;;;3.77;75.63;99670.69;5075930;28;20047;-72
2024/01/30 09:26:45;;;;;;;14.98;12.05;;;;;;;3.91;75.52;99671.84;5077330;28;20073;-72
2024/01/30 09:29:10;;;;;;;14.30;12.10;;;;;;;3.99;75.40;99670.00;5073364;28;20047;-72
2024/01/30 09:31:35;;;;;;;14.30;11.80;;;;;;;4.09;75.18;99672.50;5078213;28;20020;-72
2024/01/30 09:34:01;;;;;;;11.93;10.45;;;;;;;4.18;75.43;99677.69;5084568;28;20043;-72
2024/01/30 09:36:27;;;;;;;14.15;11.85;;;;;;;4.26;75.35;99676.00;5078638;28;20217;-73
2024/01/30 09:38:53;;;;;;;16.70;12.13;;;;;;;4.31;74.82;99673.69;5079732;28;20129;-72
2024/01/30 09:41:19;;;;;;;13.95;12.07;;;;;;;4.34;74.98;99678.69;5083151;28;20107;-73
2024/01/30 09:43:48;;;;;;;13.68;11.98;;;;;;;4.27;74.20;99656.38;5083898;28;20032;-73
2024/01/30 09:46:14;;;;;;;16.33;12.20;;;;;;;4.44;74.12;99669.50;5057731;28;20031;-73
2024/01/30 09:48:41;;;;;;;15.18;12.40;;;;;;;4.34;73.29;99662.69;5078590;28;20090;-72
2024/01/30 09:51:09;;;;;;;15.95;13.23;;;;;;;4.38;73.23;99672.84;5077168;28;20047;-72
2024/01/30 09:53:34;;;;;;;16.90;13.27;;;;;;;4.46;73.08;99674.66;5080953;28;20036;-73
2024/01/30 09:56:01;;;;;;;18.27;15.25;;;;;;;4.51;72.92;99681.16;5078594;28;20372;-72
2024/01/30 09:58:26;;;;;;;16.65;14.45;;;;;;;4.50;73.14;99676.00;5080837;28;20044;-72
2024/01/30 10:00:53;;;;;;;16.80;14.80;;;;;;;4.51;73.40;99674.97;5082369;28;20028;-72
2024/01/30 10:03:19;;;;;;;16.95;14.27;;;;;;;4.62;73.50;99672.78;5074934;28;20059;-71
2024/01/30 10:05:52;;;;;;;14.90;13.20;;;;;;;4.65;72.95;99660.94;5078689;28;20463;-74
2024/01/30 10:08:19;;;;;;;16.10;14.40;;;;;;;4.80;73.03;99675.25;5075203;28;20119;-72
2024/01/30 10:10:52;;;;;;;15.48;13.88;;;;;;;4.68;73.18;99655.28;5082344;28;20028;-73
2024/01/30 10:13:19;;;;;;;20.27;14.38;;;;;;;4.74;73.67;99681.25;5078858;28;20484;-70
2024/01/30 10:15:47;;;;;;;15.43;13.50;;;;;;;4.71;73.65;99681.63;5055377;28;20032;-71
2024/01/30 10:18:13;;;;;;;17.35;14.05;;;;;;;4.77;73.73;99678.25;5082997;28;20473;-70
2024/01/30 10:20:38;;;;;;;16.42;14.13;;;;;;;4.82;74.15;99679.41;5079786;28;20392;-71
2024/01/30 10:23:04;;;;;;;14.68;13.10;;;;;;;4.85;73.45;99672.91;5080198;28;20066;-71
2024/01/30 10:25:34;;;;;;;15.88;13.52;;;;;;;4.98;73.54;99673.19;5056847;28;20124;-72
2024/01/30 10:28:03;;;;;;;15.68;13.35;;;;;;;5.06;73.66;99670.50;5081708;28;20033;-71
2024/01/30 10:30:28;;;;;;;15.38;13.25;;;;;;;5.06;74.11;99665.16;5061576;28;20035;-71
2024/01/30 10:32:54;;;;;;;15.52;13.18;;;;;;;5.13;74.37;99670.63;5076111;28;20032;-71
2024/01/30 10:35:23;;;;;;;19.95;14.07;;;;;;;5.26;73.27;99671.72;5069066;28;20055;-71
2024/01/30 10:37:48;;;;;;;15.70;13.23;;;;;;;5.39;73.30;99668.50;5074352;28;20501;-71
2024/01/30 10:40:15;;;;;;;17.42;14.70;;;;;;;5.52;73.39;99672.25;5081620;28;20114;-72
2024/01/30 10:42:45;;;;;;;19.52;16.63;;;;;;;5.66;73.73;99672.50;5075889;28;20483;-71
2024/01/30 10:45:13;;;;;;;19.75;15.23;;;;;;;5.75;72.68;99674.13;5076301;28;20108;-72
2024/01/30 10:47:48;;;;;;;16.75;13.93;;;;;;;5.88;72.36;99667.19;5077737;28;20103;-71
2024/01/30 10:50:13;;;;;;;32.50;26.13;;;;;;;5.97;71.79;99659.97;5073938;28;20032;-71
2024/01/30 10:52:44;;;;;;;18.98;16.15;;;;;;;6.08;71.68;99662.22;5076556;28;20028;-71
2024/01/30 10:55:09;;;;;;;18.30;13.95;;;;;;;6.16;72.14;99664.81;5067909;28;20036;-72
2024/01/30 10:57:36;;;;;;;20.52;14.63;;;;;;;6.18;72.01;99665.47;5080968;28;20035;-72
2024/01/30 11:00:12;;;;;;;17.33;13.88;;;;;;;6.23;72.14;99668.44;5075986;28;20043;-72
2024/01/30 11:02:39;;;;;;;16.13;14.43;;;;;;;6.30;72.09;99666.72;5079423;28;20178;-72
2024/01/30 11:05:05;;;;;;;22.27;15.18;;;;;;;6.31;72.04;99652.31;5077082;28;20032;-72
2024/01/30 11:07:30;;;;;;;21.98;17.33;;;;;;;6.39;71.01;99660.28;5080801;28;20502;-73
2024/01/30 11:10:00;;;;;;;21.77;15.52;;;;;;;6.45;71.33;99664.88;5076236;28;20098;-71
2024/01/30 11:12:26;;;;;;;18.77;15.68;;;;;;;6.51;71.08;99668.69;5077740;28;20048;-72
2024/01/30 11:15:21;;;;;;;21.52;16.77;;;;;;;6.49;70.60;99665.38;5084975;28;20028;-72
2024/01/30 11:17:53;;;;;;;19.08;16.98;;;;;;;6.54;70.76;99662.94;5041579;28;20048;-74
2024/01/30 11:20:31;;;;;;;23.15;17.27;;;;;;;6.42;71.30;99648.38;5077173;28;20491;-72